sensor_id;sensor_type;location;lat;lon;timestamp;P1;durP1;ratioP1;P2;durP2;ratioP2
33150;SDS011;19508;42.578;23.416;2022-10-17T00:01:21;18.00;;;5.90;;
33150;SDS011;19508;42.578;23.416;2022-10-17T00:03:46;8.80;;;5.75;;
33150;SDS011;19508;42.578;23.416;2022-10-17T00:06:12;9.43;;;5.65;;
33150;SDS011;19508;42.578;23.416;2022-10-17T00:08:39;13.90;;;6.93;;
33150;SDS011;19508;42.578;23.416;2022-10-17T00:11:07;14.38;;;6.30;;
33150;SDS011;19508;42.578;23.416;2022-10-17T00:13:41;11.18;;;6.00;;
33150;SDS011;19508;42.578;23.416;2022-10-17T00:16:06;13.00;;;5.88;;
33150;SDS011;19508;42.578;23.416;2022-10-17T00:18:32;14.82;;;6.43;;
33150;SDS011;19508;42.578;23.416;2022-10-17T00:20:57;13.15;;;6.05;;
33150;SDS011;19508;42.578;23.416;2022-10-17T00:23:23;11.93;;;5.47;;
33150;SDS011;19508;42.578;23.416;2022-10-17T00:26:01;9.15;;;5.47;;
33150;SDS011;19508;42.578;23.416;2022-10-17T00:28:29;9.02;;;5.28;;
33150;SDS011;19508;42.578;23.416;2022-10-17T00:30:56;18.38;;;9.07;;
33150;SDS011;19508;42.578;23.416;2022-10-17T00:33:23;20.50;;;9.43;;
33150;SDS011;19508;42.578;23.416;2022-10-17T00:35:49;13.65;;;6.35;;
33150;SDS011;19508;42.578;23.416;2022-10-17T00:38:14;14.43;;;6.80;;
33150;SDS011;19508;42.578;23.416;2022-10-17T00:40:40;9.48;;;5.13;;
33150;SDS011;19508;42.578;23.416;2022-10-17T00:43:10;11.18;;;5.93;;
33150;SDS011;19508;42.578;23.416;2022-10-17T00:45:40;7.25;;;5.43;;
33150;SDS011;19508;42.578;23.416;2022-10-17T00:48:06;12.25;;;6.30;;
33150;SDS011;19508;42.578;23.416;2022-10-17T00:50:35;12.23;;;6.00;;
33150;SDS011;19508;42.578;23.416;2022-10-17T00:53:03;13.13;;;5.22;;
33150;SDS011;19508;42.578;23.416;2022-10-17T00:55:32;9.38;;;5.40;;
33150;SDS011;19508;42.578;23.416;2022-10-17T00:58:01;12.88;;;5.70;;
33150;SDS011;19508;42.578;23.416;2022-10-17T01:00:28;13.35;;;6.22;;
33150;SDS011;19508;42.578;23.416;2022-10-17T01:02:54;11.60;;;5.65;;
33150;SDS011;19508;42.578;23.416;2022-10-17T01:05:20;12.00;;;6.18;;
33150;SDS011;19508;42.578;23.416;2022-10-17T01:07:46;11.70;;;6.20;;
33150;SDS011;19508;42.578;23.416;2022-10-17T01:10:14;12.18;;;5.90;;
33150;SDS011;19508;42.578;23.416;2022-10-17T01:15:22;12.40;;;6.38;;
33150;SDS011;19508;42.578;23.416;2022-10-17T01:35:02;10.07;;;5.93;;
33150;SDS011;19508;42.578;23.416;2022-10-17T01:37:54;11.20;;;6.03;;
33150;SDS011;19508;42.578;23.416;2022-10-17T01:40:48;14.52;;;6.93;;
33150;SDS011;19508;42.578;23.416;2022-10-17T01:43:38;13.82;;;7.10;;
33150;SDS011;19508;42.578;23.416;2022-10-17T01:46:11;13.90;;;6.75;;
33150;SDS011;19508;42.578;23.416;2022-10-17T01:48:44;9.93;;;5.70;;
33150;SDS011;19508;42.578;23.416;2022-10-17T01:51:30;14.50;;;6.38;;
33150;SDS011;19508;42.578;23.416;2022-10-17T01:54:24;13.05;;;6.20;;
33150;SDS011;19508;42.578;23.416;2022-10-17T01:57:03;9.68;;;6.35;;
33150;SDS011;19508;42.578;23.416;2022-10-17T01:59:37;14.38;;;7.40;;
33150;SDS011;19508;42.578;23.416;2022-10-17T02:02:05;14.48;;;6.32;;
33150;SDS011;19508;42.578;23.416;2022-10-17T02:04:33;22.83;;;7.57;;
33150;SDS011;19508;42.578;23.416;2022-10-17T02:07:09;13.85;;;6.97;;
33150;SDS011;19508;42.578;23.416;2022-10-17T02:09:37;13.50;;;7.55;;
33150;SDS011;19508;42.578;23.416;2022-10-17T02:14:45;17.52;;;7.95;;
33150;SDS011;19508;42.578;23.416;2022-10-17T02:30:52;18.00;;;8.40;;
33150;SDS011;19508;42.578;23.416;2022-10-17T02:33:30;17.15;;;7.63;;
33150;SDS011;19508;42.578;23.416;2022-10-17T02:36:03;9.98;;;5.95;;
33150;SDS011;19508;42.578;23.416;2022-10-17T02:38:34;10.48;;;6.20;;
33150;SDS011;19508;42.578;23.416;2022-10-17T02:41:03;10.23;;;6.40;;
33150;SDS011;19508;42.578;23.416;2022-10-17T02:43:31;16.77;;;7.53;;
33150;SDS011;19508;42.578;23.416;2022-10-17T02:45:59;16.38;;;7.63;;
33150;SDS011;19508;42.578;23.416;2022-10-17T02:48:41;12.48;;;6.72;;
33150;SDS011;19508;42.578;23.416;2022-10-17T02:54:18;11.50;;;6.90;;
33150;SDS011;19508;42.578;23.416;2022-10-17T02:56:49;13.18;;;6.57;;
33150;SDS011;19508;42.578;23.416;2022-10-17T02:59:19;11.52;;;6.38;;
33150;SDS011;19508;42.578;23.416;2022-10-17T03:01:48;17.73;;;7.30;;
33150;SDS011;19508;42.578;23.416;2022-10-17T03:04:15;15.13;;;6.75;;
33150;SDS011;19508;42.578;23.416;2022-10-17T03:06:42;21.13;;;7.53;;
33150;SDS011;19508;42.578;23.416;2022-10-17T03:09:10;14.98;;;6.95;;
33150;SDS011;19508;42.578;23.416;2022-10-17T03:11:36;18.40;;;7.15;;
33150;SDS011;19508;42.578;23.416;2022-10-17T03:14:02;12.95;;;7.47;;
33150;SDS011;19508;42.578;23.416;2022-10-17T03:16:27;13.95;;;7.28;;
33150;SDS011;19508;42.578;23.416;2022-10-17T03:18:53;24.55;;;9.35;;
33150;SDS011;19508;42.578;23.416;2022-10-17T03:21:18;23.67;;;11.10;;
33150;SDS011;19508;42.578;23.416;2022-10-17T03:23:44;13.60;;;7.28;;
33150;SDS011;19508;42.578;23.416;2022-10-17T03:26:09;13.70;;;7.50;;
33150;SDS011;19508;42.578;23.416;2022-10-17T03:28:35;16.92;;;8.52;;
33150;SDS011;19508;42.578;23.416;2022-10-17T03:31:12;19.20;;;7.90;;
33150;SDS011;19508;42.578;23.416;2022-10-17T03:33:39;17.48;;;8.77;;
33150;SDS011;19508;42.578;23.416;2022-10-17T03:36:05;16.67;;;7.80;;
33150;SDS011;19508;42.578;23.416;2022-10-17T03:38:40;15.13;;;7.68;;
33150;SDS011;19508;42.578;23.416;2022-10-17T03:41:06;13.48;;;8.10;;
33150;SDS011;19508;42.578;23.416;2022-10-17T03:43:31;21.95;;;8.05;;
33150;SDS011;19508;42.578;23.416;2022-10-17T03:45:57;18.08;;;8.05;;
33150;SDS011;19508;42.578;23.416;2022-10-17T03:48:24;29.45;;;11.38;;
33150;SDS011;19508;42.578;23.416;2022-10-17T03:50:50;16.98;;;9.63;;
33150;SDS011;19508;42.578;23.416;2022-10-17T03:53:15;15.95;;;8.48;;
33150;SDS011;19508;42.578;23.416;2022-10-17T03:55:41;19.35;;;9.18;;
33150;SDS011;19508;42.578;23.416;2022-10-17T03:58:06;13.93;;;8.45;;
33150;SDS011;19508;42.578;23.416;2022-10-17T04:00:32;20.83;;;9.48;;
33150;SDS011;19508;42.578;23.416;2022-10-17T04:03:00;15.95;;;9.15;;
33150;SDS011;19508;42.578;23.416;2022-10-17T04:05:25;27.40;;;10.65;;
33150;SDS011;19508;42.578;23.416;2022-10-17T04:07:50;18.38;;;8.63;;
33150;SDS011;19508;42.578;23.416;2022-10-17T04:10:16;21.50;;;8.82;;
33150;SDS011;19508;42.578;23.416;2022-10-17T04:12:42;14.80;;;8.45;;
33150;SDS011;19508;42.578;23.416;2022-10-17T04:15:07;24.58;;;8.15;;
33150;SDS011;19508;42.578;23.416;2022-10-17T04:17:33;22.83;;;9.27;;
33150;SDS011;19508;42.578;23.416;2022-10-17T04:19:58;30.92;;;8.85;;
33150;SDS011;19508;42.578;23.416;2022-10-17T04:22:24;15.02;;;8.80;;
33150;SDS011;19508;42.578;23.416;2022-10-17T04:24:49;15.32;;;9.18;;
33150;SDS011;19508;42.578;23.416;2022-10-17T04:27:15;17.40;;;8.50;;
33150;SDS011;19508;42.578;23.416;2022-10-17T04:29:40;19.33;;;10.15;;
33150;SDS011;19508;42.578;23.416;2022-10-17T04:32:05;15.18;;;8.65;;
33150;SDS011;19508;42.578;23.416;2022-10-17T04:34:31;32.25;;;9.18;;
33150;SDS011;19508;42.578;23.416;2022-10-17T04:36:56;21.88;;;9.60;;
33150;SDS011;19508;42.578;23.416;2022-10-17T04:39:22;19.35;;;9.93;;
33150;SDS011;19508;42.578;23.416;2022-10-17T04:41:47;20.70;;;9.50;;
33150;SDS011;19508;42.578;23.416;2022-10-17T04:44:13;20.70;;;8.90;;
33150;SDS011;19508;42.578;23.416;2022-10-17T04:46:38;18.50;;;8.63;;
33150;SDS011;19508;42.578;23.416;2022-10-17T04:49:04;20.98;;;9.38;;
33150;SDS011;19508;42.578;23.416;2022-10-17T04:51:29;19.42;;;8.70;;
33150;SDS011;19508;42.578;23.416;2022-10-17T04:53:54;21.20;;;7.78;;
33150;SDS011;19508;42.578;23.416;2022-10-17T04:56:21;18.95;;;8.93;;
33150;SDS011;19508;42.578;23.416;2022-10-17T04:58:47;25.27;;;8.60;;
33150;SDS011;19508;42.578;23.416;2022-10-17T05:01:14;16.67;;;8.30;;
33150;SDS011;19508;42.578;23.416;2022-10-17T05:03:43;16.02;;;8.43;;
33150;SDS011;19508;42.578;23.416;2022-10-17T05:06:10;18.10;;;9.25;;
33150;SDS011;19508;42.578;23.416;2022-10-17T05:08:38;16.25;;;8.85;;
33150;SDS011;19508;42.578;23.416;2022-10-17T05:11:04;17.88;;;10.07;;
33150;SDS011;19508;42.578;23.416;2022-10-17T05:13:31;27.95;;;9.82;;
33150;SDS011;19508;42.578;23.416;2022-10-17T05:15:57;20.38;;;10.18;;
33150;SDS011;19508;42.578;23.416;2022-10-17T05:18:24;24.77;;;10.55;;
33150;SDS011;19508;42.578;23.416;2022-10-17T05:20:50;22.20;;;13.50;;
33150;SDS011;19508;42.578;23.416;2022-10-17T05:23:16;32.45;;;17.15;;
33150;SDS011;19508;42.578;23.416;2022-10-17T05:25:41;29.33;;;15.07;;
33150;SDS011;19508;42.578;23.416;2022-10-17T05:28:07;27.83;;;14.73;;
33150;SDS011;19508;42.578;23.416;2022-10-17T05:30:33;18.85;;;10.45;;
33150;SDS011;19508;42.578;23.416;2022-10-17T05:32:59;18.13;;;9.27;;
33150;SDS011;19508;42.578;23.416;2022-10-17T05:35:24;17.85;;;9.75;;
33150;SDS011;19508;42.578;23.416;2022-10-17T05:37:50;12.73;;;7.50;;
33150;SDS011;19508;42.578;23.416;2022-10-17T05:40:15;17.67;;;8.75;;
33150;SDS011;19508;42.578;23.416;2022-10-17T05:42:44;12.25;;;7.15;;
33150;SDS011;19508;42.578;23.416;2022-10-17T05:45:11;14.23;;;7.10;;
33150;SDS011;19508;42.578;23.416;2022-10-17T05:47:37;11.75;;;7.13;;
33150;SDS011;19508;42.578;23.416;2022-10-17T05:50:02;11.93;;;7.20;;
33150;SDS011;19508;42.578;23.416;2022-10-17T05:52:28;12.40;;;6.97;;
33150;SDS011;19508;42.578;23.416;2022-10-17T05:54:53;12.75;;;6.95;;
33150;SDS011;19508;42.578;23.416;2022-10-17T05:57:19;13.07;;;7.00;;
33150;SDS011;19508;42.578;23.416;2022-10-17T05:59:44;8.98;;;5.68;;
33150;SDS011;19508;42.578;23.416;2022-10-17T06:02:11;16.52;;;6.40;;
33150;SDS011;19508;42.578;23.416;2022-10-17T06:04:37;17.23;;;6.97;;
33150;SDS011;19508;42.578;23.416;2022-10-17T06:07:02;12.25;;;6.45;;
33150;SDS011;19508;42.578;23.416;2022-10-17T06:09:29;12.25;;;6.70;;
33150;SDS011;19508;42.578;23.416;2022-10-17T06:11:54;13.48;;;6.68;;
33150;SDS011;19508;42.578;23.416;2022-10-17T06:14:19;11.10;;;6.30;;
33150;SDS011;19508;42.578;23.416;2022-10-17T06:16:45;9.48;;;5.88;;
33150;SDS011;19508;42.578;23.416;2022-10-17T06:19:11;12.63;;;5.93;;
33150;SDS011;19508;42.578;23.416;2022-10-17T06:21:36;11.43;;;6.10;;
33150;SDS011;19508;42.578;23.416;2022-10-17T06:24:02;10.25;;;5.80;;
33150;SDS011;19508;42.578;23.416;2022-10-17T06:26:28;10.15;;;5.55;;
33150;SDS011;19508;42.578;23.416;2022-10-17T06:28:54;12.88;;;5.65;;
33150;SDS011;19508;42.578;23.416;2022-10-17T06:31:19;11.57;;;5.50;;
33150;SDS011;19508;42.578;23.416;2022-10-17T06:33:45;7.47;;;5.28;;
33150;SDS011;19508;42.578;23.416;2022-10-17T06:36:11;9.75;;;5.10;;
33150;SDS011;19508;42.578;23.416;2022-10-17T06:38:38;12.55;;;5.18;;
33150;SDS011;19508;42.578;23.416;2022-10-17T06:41:05;10.70;;;5.25;;
33150;SDS011;19508;42.578;23.416;2022-10-17T06:43:38;12.70;;;5.40;;
33150;SDS011;19508;42.578;23.416;2022-10-17T06:46:04;8.80;;;6.00;;
33150;SDS011;19508;42.578;23.416;2022-10-17T06:48:30;8.07;;;4.82;;
33150;SDS011;19508;42.578;23.416;2022-10-17T06:50:59;12.73;;;5.90;;
33150;SDS011;19508;42.578;23.416;2022-10-17T06:53:28;7.15;;;5.35;;
33150;SDS011;19508;42.578;23.416;2022-10-17T06:55:54;9.05;;;5.93;;
33150;SDS011;19508;42.578;23.416;2022-10-17T06:58:25;12.80;;;6.13;;
33150;SDS011;19508;42.578;23.416;2022-10-17T07:00:57;13.15;;;6.88;;
33150;SDS011;19508;42.578;23.416;2022-10-17T07:03:27;55.03;;;26.50;;
33150;SDS011;19508;42.578;23.416;2022-10-17T07:05:53;18.63;;;9.50;;
33150;SDS011;19508;42.578;23.416;2022-10-17T07:08:19;8.30;;;5.20;;
33150;SDS011;19508;42.578;23.416;2022-10-17T07:10:45;10.88;;;5.30;;
33150;SDS011;19508;42.578;23.416;2022-10-17T07:13:11;9.38;;;5.32;;
33150;SDS011;19508;42.578;23.416;2022-10-17T07:15:37;10.25;;;4.80;;
33150;SDS011;19508;42.578;23.416;2022-10-17T07:18:03;10.93;;;5.32;;
33150;SDS011;19508;42.578;23.416;2022-10-17T07:20:28;9.25;;;5.20;;
33150;SDS011;19508;42.578;23.416;2022-10-17T07:22:54;7.97;;;4.60;;
33150;SDS011;19508;42.578;23.416;2022-10-17T07:25:19;7.15;;;4.57;;
33150;SDS011;19508;42.578;23.416;2022-10-17T07:27:45;6.47;;;4.10;;
33150;SDS011;19508;42.578;23.416;2022-10-17T07:30:12;9.95;;;4.35;;
33150;SDS011;19508;42.578;23.416;2022-10-17T07:32:37;12.38;;;7.13;;
33150;SDS011;19508;42.578;23.416;2022-10-17T07:35:03;8.00;;;4.90;;
33150;SDS011;19508;42.578;23.416;2022-10-17T07:37:28;12.98;;;4.55;;
33150;SDS011;19508;42.578;23.416;2022-10-17T07:39:54;9.57;;;3.97;;
33150;SDS011;19508;42.578;23.416;2022-10-17T07:42:20;7.22;;;4.38;;
33150;SDS011;19508;42.578;23.416;2022-10-17T07:44:46;8.82;;;4.70;;
33150;SDS011;19508;42.578;23.416;2022-10-17T07:47:12;7.57;;;4.63;;
33150;SDS011;19508;42.578;23.416;2022-10-17T07:49:37;5.57;;;3.85;;
33150;SDS011;19508;42.578;23.416;2022-10-17T07:52:17;9.80;;;3.75;;
33150;SDS011;19508;42.578;23.416;2022-10-17T07:54:42;7.95;;;4.25;;
33150;SDS011;19508;42.578;23.416;2022-10-17T08:20:35;8.88;;;4.03;;
33150;SDS011;19508;42.578;23.416;2022-10-17T08:23:01;7.28;;;3.97;;
33150;SDS011;19508;42.578;23.416;2022-10-17T08:25:26;7.35;;;3.83;;
33150;SDS011;19508;42.578;23.416;2022-10-17T08:27:51;5.80;;;4.40;;
33150;SDS011;19508;42.578;23.416;2022-10-17T08:30:17;6.13;;;4.05;;
33150;SDS011;19508;42.578;23.416;2022-10-17T08:32:42;6.95;;;4.18;;
33150;SDS011;19508;42.578;23.416;2022-10-17T08:35:08;11.35;;;3.97;;
33150;SDS011;19508;42.578;23.416;2022-10-17T08:37:34;8.05;;;4.50;;
33150;SDS011;19508;42.578;23.416;2022-10-17T08:39:59;12.98;;;4.65;;
33150;SDS011;19508;42.578;23.416;2022-10-17T08:47:39;9.00;;;4.65;;
33150;SDS011;19508;42.578;23.416;2022-10-17T08:53:03;13.27;;;4.25;;
33150;SDS011;19508;42.578;23.416;2022-10-17T08:55:41;13.55;;;5.97;;
33150;SDS011;19508;42.578;23.416;2022-10-17T08:58:12;11.15;;;5.40;;
33150;SDS011;19508;42.578;23.416;2022-10-17T09:00:40;11.02;;;5.65;;
33150;SDS011;19508;42.578;23.416;2022-10-17T09:03:28;12.00;;;5.38;;
33150;SDS011;19508;42.578;23.416;2022-10-17T09:06:14;19.20;;;6.07;;
33150;SDS011;19508;42.578;23.416;2022-10-17T09:09:02;14.15;;;4.85;;
33150;SDS011;19508;42.578;23.416;2022-10-17T09:14:08;15.98;;;5.15;;
33150;SDS011;19508;42.578;23.416;2022-10-17T09:16:55;8.32;;;4.70;;
33150;SDS011;19508;42.578;23.416;2022-10-17T09:19:36;9.27;;;5.13;;
33150;SDS011;19508;42.578;23.416;2022-10-17T09:22:10;8.63;;;4.68;;
33150;SDS011;19508;42.578;23.416;2022-10-17T09:24:42;10.00;;;4.45;;
33150;SDS011;19508;42.578;23.416;2022-10-17T09:33:27;9.80;;;3.33;;
33150;SDS011;19508;42.578;23.416;2022-10-17T09:36:05;14.68;;;3.95;;
33150;SDS011;19508;42.578;23.416;2022-10-17T09:38:40;9.18;;;3.85;;
33150;SDS011;19508;42.578;23.416;2022-10-17T09:41:19;9.18;;;3.25;;
33150;SDS011;19508;42.578;23.416;2022-10-17T09:46:25;6.20;;;2.45;;
33150;SDS011;19508;42.578;23.416;2022-10-17T09:49:11;3.85;;;2.30;;
33150;SDS011;19508;42.578;23.416;2022-10-17T09:51:41;6.75;;;2.90;;
33150;SDS011;19508;42.578;23.416;2022-10-17T09:57:19;7.35;;;3.13;;
33150;SDS011;19508;42.578;23.416;2022-10-17T09:59:46;7.63;;;2.90;;
33150;SDS011;19508;42.578;23.416;2022-10-17T10:04:51;4.38;;;2.30;;
33150;SDS011;19508;42.578;23.416;2022-10-17T10:07:16;4.95;;;2.70;;
33150;SDS011;19508;42.578;23.416;2022-10-17T10:09:45;5.97;;;2.55;;
33150;SDS011;19508;42.578;23.416;2022-10-17T10:12:31;8.32;;;2.80;;
33150;SDS011;19508;42.578;23.416;2022-10-17T10:14:58;6.40;;;3.00;;
33150;SDS011;19508;42.578;23.416;2022-10-17T10:25:48;5.30;;;2.65;;
33150;SDS011;19508;42.578;23.416;2022-10-17T10:28:17;4.88;;;2.75;;
33150;SDS011;19508;42.578;23.416;2022-10-17T10:30:48;4.40;;;2.67;;
33150;SDS011;19508;42.578;23.416;2022-10-17T10:33:15;4.65;;;2.85;;
33150;SDS011;19508;42.578;23.416;2022-10-17T10:35:44;7.53;;;2.60;;
33150;SDS011;19508;42.578;23.416;2022-10-17T10:38:18;4.78;;;2.90;;
33150;SDS011;19508;42.578;23.416;2022-10-17T10:45:59;3.97;;;2.67;;
33150;SDS011;19508;42.578;23.416;2022-10-17T10:48:25;8.00;;;2.70;;
33150;SDS011;19508;42.578;23.416;2022-10-17T10:53:39;4.13;;;2.67;;
33150;SDS011;19508;42.578;23.416;2022-10-17T10:56:12;5.03;;;2.63;;
33150;SDS011;19508;42.578;23.416;2022-10-17T10:58:46;7.05;;;2.75;;
33150;SDS011;19508;42.578;23.416;2022-10-17T11:01:18;9.65;;;2.70;;
33150;SDS011;19508;42.578;23.416;2022-10-17T11:04:04;10.27;;;3.60;;
33150;SDS011;19508;42.578;23.416;2022-10-17T11:06:51;5.88;;;2.97;;
33150;SDS011;19508;42.578;23.416;2022-10-17T11:15:17;8.65;;;2.90;;
33150;SDS011;19508;42.578;23.416;2022-10-17T11:17:59;6.57;;;2.75;;
33150;SDS011;19508;42.578;23.416;2022-10-17T11:26:04;7.32;;;2.63;;
33150;SDS011;19508;42.578;23.416;2022-10-17T11:28:40;10.82;;;3.15;;
33150;SDS011;19508;42.578;23.416;2022-10-17T11:31:09;8.05;;;3.08;;
33150;SDS011;19508;42.578;23.416;2022-10-17T11:36:08;10.70;;;2.90;;
33150;SDS011;19508;42.578;23.416;2022-10-17T11:38:37;5.40;;;2.28;;
33150;SDS011;19508;42.578;23.416;2022-10-17T11:41:08;10.52;;;2.88;;
33150;SDS011;19508;42.578;23.416;2022-10-17T11:43:39;4.53;;;2.53;;
33150;SDS011;19508;42.578;23.416;2022-10-17T11:46:14;5.82;;;2.85;;
33150;SDS011;19508;42.578;23.416;2022-10-17T11:51:19;6.75;;;2.67;;
33150;SDS011;19508;42.578;23.416;2022-10-17T11:53:49;9.80;;;2.80;;
33150;SDS011;19508;42.578;23.416;2022-10-17T11:56:18;4.30;;;2.30;;
33150;SDS011;19508;42.578;23.416;2022-10-17T11:58:57;5.43;;;2.78;;
33150;SDS011;19508;42.578;23.416;2022-10-17T12:01:46;3.97;;;2.30;;
33150;SDS011;19508;42.578;23.416;2022-10-17T12:16:57;6.00;;;2.45;;
33150;SDS011;19508;42.578;23.416;2022-10-17T12:19:25;5.25;;;2.55;;
33150;SDS011;19508;42.578;23.416;2022-10-17T12:24:28;8.18;;;3.05;;
33150;SDS011;19508;42.578;23.416;2022-10-17T12:35:27;6.68;;;2.60;;
33150;SDS011;19508;42.578;23.416;2022-10-17T12:43:31;4.35;;;2.42;;
33150;SDS011;19508;42.578;23.416;2022-10-17T12:45:55;6.63;;;3.23;;
33150;SDS011;19508;42.578;23.416;2022-10-17T12:53:37;6.18;;;2.80;;
33150;SDS011;19508;42.578;23.416;2022-10-17T12:56:16;4.50;;;2.70;;
33150;SDS011;19508;42.578;23.416;2022-10-17T12:58:47;3.55;;;2.13;;
33150;SDS011;19508;42.578;23.416;2022-10-17T13:01:18;7.03;;;2.33;;
33150;SDS011;19508;42.578;23.416;2022-10-17T13:03:52;3.42;;;2.15;;
33150;SDS011;19508;42.578;23.416;2022-10-17T13:06:26;5.60;;;2.20;;
33150;SDS011;19508;42.578;23.416;2022-10-17T13:08:58;9.57;;;2.40;;
33150;SDS011;19508;42.578;23.416;2022-10-17T13:11:27;6.85;;;2.78;;
33150;SDS011;19508;42.578;23.416;2022-10-17T13:13:55;5.68;;;2.85;;
33150;SDS011;19508;42.578;23.416;2022-10-17T13:16:30;6.07;;;2.20;;
33150;SDS011;19508;42.578;23.416;2022-10-17T13:19:00;6.47;;;2.53;;
33150;SDS011;19508;42.578;23.416;2022-10-17T13:21:27;7.30;;;2.15;;
33150;SDS011;19508;42.578;23.416;2022-10-17T13:23:53;5.68;;;1.98;;
33150;SDS011;19508;42.578;23.416;2022-10-17T13:26:26;3.63;;;2.35;;
33150;SDS011;19508;42.578;23.416;2022-10-17T13:29:12;8.93;;;2.03;;
33150;SDS011;19508;42.578;23.416;2022-10-17T13:31:41;5.03;;;1.95;;
33150;SDS011;19508;42.578;23.416;2022-10-17T13:34:15;7.68;;;2.30;;
33150;SDS011;19508;42.578;23.416;2022-10-17T13:36:42;14.88;;;2.40;;
33150;SDS011;19508;42.578;23.416;2022-10-17T13:39:13;3.80;;;2.22;;
33150;SDS011;19508;42.578;23.416;2022-10-17T13:44:14;7.63;;;2.10;;
33150;SDS011;19508;42.578;23.416;2022-10-17T13:46:44;6.18;;;2.10;;
33150;SDS011;19508;42.578;23.416;2022-10-17T13:51:45;9.32;;;2.47;;
33150;SDS011;19508;42.578;23.416;2022-10-17T13:54:32;8.48;;;2.58;;
33150;SDS011;19508;42.578;23.416;2022-10-17T13:57:19;4.88;;;2.55;;
33150;SDS011;19508;42.578;23.416;2022-10-17T13:59:50;6.07;;;3.15;;
33150;SDS011;19508;42.578;23.416;2022-10-17T14:02:20;4.40;;;2.50;;
33150;SDS011;19508;42.578;23.416;2022-10-17T14:05:10;5.13;;;2.30;;
33150;SDS011;19508;42.578;23.416;2022-10-17T14:07:39;7.40;;;2.35;;
33150;SDS011;19508;42.578;23.416;2022-10-17T14:10:16;11.57;;;4.88;;
33150;SDS011;19508;42.578;23.416;2022-10-17T14:12:48;7.78;;;4.40;;
33150;SDS011;19508;42.578;23.416;2022-10-17T14:15:15;15.75;;;6.60;;
33150;SDS011;19508;42.578;23.416;2022-10-17T14:17:41;14.85;;;5.90;;
33150;SDS011;19508;42.578;23.416;2022-10-17T14:20:16;15.27;;;6.20;;
33150;SDS011;19508;42.578;23.416;2022-10-17T14:22:44;10.40;;;4.75;;
33150;SDS011;19508;42.578;23.416;2022-10-17T14:30:38;12.35;;;4.68;;
33150;SDS011;19508;42.578;23.416;2022-10-17T14:33:14;17.30;;;8.63;;
33150;SDS011;19508;42.578;23.416;2022-10-17T14:35:50;13.90;;;5.75;;
33150;SDS011;19508;42.578;23.416;2022-10-17T14:38:17;9.13;;;4.03;;
33150;SDS011;19508;42.578;23.416;2022-10-17T14:40:50;7.78;;;3.88;;
33150;SDS011;19508;42.578;23.416;2022-10-17T14:43:37;11.57;;;4.78;;
33150;SDS011;19508;42.578;23.416;2022-10-17T14:46:03;8.73;;;4.43;;
33150;SDS011;19508;42.578;23.416;2022-10-17T14:48:29;8.98;;;2.47;;
33150;SDS011;19508;42.578;23.416;2022-10-17T14:51:04;8.27;;;2.60;;
33150;SDS011;19508;42.578;23.416;2022-10-17T14:53:34;6.68;;;2.60;;
33150;SDS011;19508;42.578;23.416;2022-10-17T14:56:04;6.15;;;2.22;;
33150;SDS011;19508;42.578;23.416;2022-10-17T14:58:46;8.23;;;2.60;;
33150;SDS011;19508;42.578;23.416;2022-10-17T15:01:12;11.13;;;3.08;;
33150;SDS011;19508;42.578;23.416;2022-10-17T15:03:41;4.55;;;2.40;;
33150;SDS011;19508;42.578;23.416;2022-10-17T15:06:13;4.05;;;2.25;;
33150;SDS011;19508;42.578;23.416;2022-10-17T15:08:39;14.50;;;5.70;;
33150;SDS011;19508;42.578;23.416;2022-10-17T15:11:05;19.25;;;5.80;;
33150;SDS011;19508;42.578;23.416;2022-10-17T15:13:30;15.95;;;8.48;;
33150;SDS011;19508;42.578;23.416;2022-10-17T15:15:56;17.73;;;8.20;;
33150;SDS011;19508;42.578;23.416;2022-10-17T15:18:21;12.73;;;6.93;;
33150;SDS011;19508;42.578;23.416;2022-10-17T15:20:46;16.23;;;8.10;;
33150;SDS011;19508;42.578;23.416;2022-10-17T15:23:12;14.27;;;8.23;;
33150;SDS011;19508;42.578;23.416;2022-10-17T15:25:37;14.65;;;6.88;;
33150;SDS011;19508;42.578;23.416;2022-10-17T15:28:03;22.15;;;7.30;;
33150;SDS011;19508;42.578;23.416;2022-10-17T15:30:30;20.73;;;10.50;;
33150;SDS011;19508;42.578;23.416;2022-10-17T15:32:58;17.05;;;8.57;;
33150;SDS011;19508;42.578;23.416;2022-10-17T15:35:23;30.10;;;8.27;;
33150;SDS011;19508;42.578;23.416;2022-10-17T15:37:50;20.40;;;10.32;;
33150;SDS011;19508;42.578;23.416;2022-10-17T15:40:18;34.97;;;12.52;;
33150;SDS011;19508;42.578;23.416;2022-10-17T15:42:48;15.95;;;8.60;;
33150;SDS011;19508;42.578;23.416;2022-10-17T15:45:15;34.08;;;9.07;;
33150;SDS011;19508;42.578;23.416;2022-10-17T15:47:42;22.60;;;8.63;;
33150;SDS011;19508;42.578;23.416;2022-10-17T15:50:15;19.65;;;9.30;;
33150;SDS011;19508;42.578;23.416;2022-10-17T15:52:42;23.45;;;6.80;;
33150;SDS011;19508;42.578;23.416;2022-10-17T15:55:08;21.98;;;7.70;;
33150;SDS011;19508;42.578;23.416;2022-10-17T15:57:35;18.33;;;7.35;;
33150;SDS011;19508;42.578;23.416;2022-10-17T16:00:06;77.60;;;26.00;;
33150;SDS011;19508;42.578;23.416;2022-10-17T16:02:36;56.08;;;20.20;;
33150;SDS011;19508;42.578;23.416;2022-10-17T16:05:04;33.30;;;13.10;;
33150;SDS011;19508;42.578;23.416;2022-10-17T16:07:37;29.60;;;14.93;;
33150;SDS011;19508;42.578;23.416;2022-10-17T16:10:02;95.38;;;41.97;;
33150;SDS011;19508;42.578;23.416;2022-10-17T16:12:28;48.88;;;22.35;;
33150;SDS011;19508;42.578;23.416;2022-10-17T16:14:55;36.13;;;17.63;;
33150;SDS011;19508;42.578;23.416;2022-10-17T16:17:21;28.90;;;13.45;;
33150;SDS011;19508;42.578;23.416;2022-10-17T16:19:46;22.23;;;9.57;;
33150;SDS011;19508;42.578;23.416;2022-10-17T16:24:56;25.45;;;10.63;;
33150;SDS011;19508;42.578;23.416;2022-10-17T16:27:23;35.00;;;17.13;;
33150;SDS011;19508;42.578;23.416;2022-10-17T16:29:49;42.97;;;17.83;;
33150;SDS011;19508;42.578;23.416;2022-10-17T16:32:15;31.50;;;17.50;;
33150;SDS011;19508;42.578;23.416;2022-10-17T16:34:40;21.42;;;11.40;;
33150;SDS011;19508;42.578;23.416;2022-10-17T16:37:06;21.38;;;11.15;;
33150;SDS011;19508;42.578;23.416;2022-10-17T16:39:31;21.25;;;9.88;;
33150;SDS011;19508;42.578;23.416;2022-10-17T16:41:56;20.50;;;8.60;;
33150;SDS011;19508;42.578;23.416;2022-10-17T16:44:22;23.75;;;7.70;;
33150;SDS011;19508;42.578;23.416;2022-10-17T16:46:47;39.67;;;15.23;;
33150;SDS011;19508;42.578;23.416;2022-10-17T16:49:13;46.08;;;14.73;;
33150;SDS011;19508;42.578;23.416;2022-10-17T16:51:40;43.28;;;19.27;;
33150;SDS011;19508;42.578;23.416;2022-10-17T16:54:05;41.33;;;18.65;;
33150;SDS011;19508;42.578;23.416;2022-10-17T16:56:31;48.88;;;22.80;;
33150;SDS011;19508;42.578;23.416;2022-10-17T16:58:57;40.50;;;18.52;;
33150;SDS011;19508;42.578;23.416;2022-10-17T17:01:24;26.65;;;10.95;;
33150;SDS011;19508;42.578;23.416;2022-10-17T17:03:50;19.25;;;10.00;;
33150;SDS011;19508;42.578;23.416;2022-10-17T17:06:26;21.80;;;7.15;;
33150;SDS011;19508;42.578;23.416;2022-10-17T17:08:53;21.55;;;9.07;;
33150;SDS011;19508;42.578;23.416;2022-10-17T17:11:20;37.30;;;16.05;;
33150;SDS011;19508;42.578;23.416;2022-10-17T17:13:46;43.72;;;18.75;;
33150;SDS011;19508;42.578;23.416;2022-10-17T17:16:13;36.25;;;14.85;;
33150;SDS011;19508;42.578;23.416;2022-10-17T17:18:40;37.53;;;13.80;;
33150;SDS011;19508;42.578;23.416;2022-10-17T17:21:07;31.23;;;9.52;;
33150;SDS011;19508;42.578;23.416;2022-10-17T17:23:35;30.83;;;7.70;;